createdAt,value
2018-11-02T00:00:29.134Z,28.30
2018-11-02T00:01:29.103Z,28.10
2018-11-02T00:02:29.155Z,27.40
2018-11-02T00:03:29.461Z,26.10
2018-11-02T00:04:29.885Z,25.90
2018-11-02T00:05:30.202Z,27.30
2018-11-02T00:06:30.612Z,26.40
2018-11-02T00:07:30.713Z,26.70
2018-11-02T00:08:31.044Z,25.20
2018-11-02T00:09:31.775Z,27.00
2018-11-02T00:10:31.563Z,26.50
2018-11-02T00:11:31.873Z,26.20
2018-11-02T00:12:32.352Z,25.30
2018-11-02T00:13:32.619Z,25.00
2018-11-02T00:14:32.932Z,25.50
2018-11-02T00:15:34.326Z,25.00
2018-11-02T00:16:34.539Z,24.50
2018-11-02T00:17:34.648Z,23.20
2018-11-02T00:18:35.074Z,23.50
2018-11-02T00:19:35.491Z,24.00
2018-11-02T00:20:35.895Z,22.90
2018-11-02T00:21:36.031Z,22.00
2018-11-02T00:22:36.307Z,22.00
2018-11-02T00:23:36.320Z,21.10
2018-11-02T00:24:36.665Z,20.90
2018-11-02T00:25:36.750Z,20.20
2018-11-02T00:26:36.762Z,20.80
2018-11-02T00:27:36.853Z,19.80
2018-11-02T00:28:36.963Z,19.60
2018-11-02T00:29:36.420Z,19.10
2018-11-02T00:30:37.087Z,18.70
2018-11-02T00:31:36.967Z,19.00
2018-11-02T00:32:37.146Z,18.90
2018-11-02T00:33:37.450Z,18.20
2018-11-02T00:34:37.538Z,18.00
2018-11-02T00:35:37.645Z,18.70
2018-11-02T00:36:37.859Z,18.50
2018-11-02T00:37:37.923Z,18.20
2018-11-02T00:38:38.122Z,19.00
2018-11-02T00:39:38.276Z,20.00
2018-11-02T00:40:38.475Z,20.40
2018-11-02T00:41:38.653Z,20.60
2018-11-02T00:42:39.020Z,19.70
2018-11-02T00:43:38.840Z,19.00
2018-11-02T00:44:39.197Z,19.40
2018-11-02T00:45:39.524Z,18.40
2018-11-02T00:46:39.882Z,18.30
2018-11-02T00:47:40.143Z,20.20
2018-11-02T00:48:40.716Z,19.30
2018-11-02T00:49:41.020Z,18.60
2018-11-02T00:50:41.310Z,19.80
2018-11-02T00:51:41.876Z,19.40
2018-11-02T00:52:41.621Z,19.20
2018-11-02T00:53:42.023Z,19.20
2018-11-02T00:54:42.451Z,17.80
2018-11-02T00:55:42.816Z,20.40
2018-11-02T00:56:43.121Z,20.00
2018-11-02T00:57:43.436Z,19.20
2018-11-02T00:58:43.743Z,19.50
2018-11-02T00:59:44.051Z,18.60
2018-11-02T01:00:44.367Z,19.50
2018-11-02T01:01:44.641Z,17.70
2018-11-02T01:02:45.008Z,18.90
2018-11-02T01:03:45.298Z,19.00
2018-11-02T01:04:45.627Z,18.70
2018-11-02T01:05:45.945Z,19.80
2018-11-02T01:06:46.258Z,18.60
2018-11-02T01:07:46.624Z,19.10
2018-11-02T01:08:47.062Z,18.90
2018-11-02T01:09:47.034Z,18.80
2018-11-02T01:10:47.452Z,18.80
2018-11-02T01:11:47.827Z,16.90
2018-11-02T01:12:48.626Z,18.70
2018-11-02T01:13:49.247Z,17.90
2018-11-02T01:14:49.560Z,19.50
2018-11-02T01:15:49.479Z,17.50
2018-11-02T01:16:50.332Z,17.10
2018-11-02T01:18:50.823Z,17.10
2018-11-02T01:19:50.823Z,17.40
2018-11-02T01:20:50.641Z,17.40
2018-11-02T01:21:50.894Z,17.40
2018-11-02T01:22:51.055Z,17.10
2018-11-02T01:23:51.465Z,17.00
2018-11-02T01:24:51.475Z,15.30
2018-11-02T01:25:51.498Z,16.40
2018-11-02T01:26:51.789Z,16.60
2018-11-02T01:27:52.564Z,15.50
2018-11-02T01:28:52.005Z,15.00
2018-11-02T01:29:52.273Z,15.20
2018-11-02T01:30:52.386Z,15.30
2018-11-02T01:31:52.593Z,15.00
2018-11-02T01:32:53.051Z,15.10
2018-11-02T01:33:53.136Z,14.90
2018-11-02T01:34:53.275Z,14.90
2018-11-02T01:35:53.542Z,14.90
2018-11-02T01:36:53.760Z,14.10
2018-11-02T01:37:53.966Z,14.70
2018-11-02T01:38:54.025Z,14.80
2018-11-02T01:39:54.200Z,15.20
2018-11-02T01:40:54.124Z,15.60
2018-11-02T01:41:54.309Z,15.10
2018-11-02T01:42:54.167Z,15.50
2018-11-02T01:43:54.628Z,15.20
2018-11-02T01:44:55.038Z,15.40
2018-11-02T01:45:55.519Z,14.50
2018-11-02T01:46:55.793Z,14.20
2018-11-02T01:47:56.144Z,14.70
2018-11-02T01:48:56.447Z,15.40
2018-11-02T01:49:56.825Z,14.30
2018-11-02T01:50:57.195Z,13.70
2018-11-02T01:51:57.522Z,13.50
2018-11-02T01:52:57.919Z,13.40
2018-11-02T01:53:58.238Z,13.60
2018-11-02T01:54:58.548Z,13.30
2018-11-02T01:55:58.864Z,11.90
2018-11-02T01:56:59.217Z,11.20
2018-11-02T01:57:59.627Z,11.80
2018-11-02T01:58:59.912Z,11.40
2018-11-02T02:00:00.281Z,11.60
2018-11-02T02:01:00.585Z,11.00
2018-11-02T02:02:01.245Z,11.50
2018-11-02T02:03:01.676Z,10.70
2018-11-02T02:04:01.795Z,10.60
2018-11-02T02:05:02.046Z,10.10
2018-11-02T02:06:02.751Z,10.20
2018-11-02T02:07:02.566Z,9.90
2018-11-02T02:08:03.745Z,9.70
2018-11-02T02:09:04.561Z,9.50
2018-11-02T02:10:05.181Z,9.50
2018-11-02T02:11:05.597Z,9.00
2018-11-02T02:12:06.129Z,8.90
2018-11-02T02:13:06.341Z,9.30
2018-11-02T02:14:06.335Z,8.90
2018-11-02T02:15:07.033Z,8.40
2018-11-02T02:16:06.852Z,8.50
2018-11-02T02:17:06.967Z,8.70
2018-11-02T02:18:07.157Z,8.40
2018-11-02T02:19:07.171Z,8.10
2018-11-02T02:20:07.178Z,8.20
2018-11-02T02:21:07.346Z,8.20
2018-11-02T02:22:07.539Z,8.50
2018-11-02T02:23:07.766Z,8.10
2018-11-02T02:24:07.817Z,7.80
2018-11-02T02:25:08.008Z,8.40
2018-11-02T02:26:07.823Z,8.10
2018-11-02T02:27:08.151Z,7.40
2018-11-02T02:28:08.457Z,7.40
2018-11-02T02:29:09.068Z,7.00
2018-11-02T02:30:09.573Z,7.80
2018-11-02T02:31:09.849Z,6.70
2018-11-02T02:32:09.690Z,7.20
2018-11-02T02:33:10.063Z,7.10
2018-11-02T02:34:10.351Z,7.30
2018-11-02T02:35:10.843Z,7.60
2018-11-02T02:36:11.119Z,7.40
2018-11-02T02:37:11.630Z,6.60
2018-11-02T02:38:11.959Z,7.10
2018-11-02T02:39:12.355Z,7.20
2018-11-02T02:40:12.779Z,7.30
2018-11-02T02:41:13.148Z,7.80
2018-11-02T02:42:13.503Z,7.50
2018-11-02T02:43:13.827Z,8.00
2018-11-02T02:44:14.281Z,7.50
2018-11-02T02:45:15.105Z,7.50
2018-11-02T02:46:14.964Z,6.90
2018-11-02T02:47:15.276Z,7.40
2018-11-02T02:48:15.604Z,7.10
2018-11-02T02:49:15.901Z,7.00
2018-11-02T02:50:16.793Z,7.70
2018-11-02T02:51:16.635Z,7.70
2018-11-02T02:52:17.088Z,7.60
2018-11-02T02:53:17.169Z,8.00
2018-11-02T02:54:17.468Z,7.90
2018-11-02T02:55:18.073Z,8.90
2018-11-02T02:56:18.180Z,9.10
2018-11-02T02:57:18.294Z,9.30
2018-11-02T02:58:18.607Z,8.60
2018-11-02T02:59:19.104Z,9.20
2018-11-02T03:00:19.841Z,9.20
2018-11-02T03:01:19.949Z,9.30
2018-11-02T03:02:20.059Z,10.50
2018-11-02T03:03:20.284Z,10.30
2018-11-02T03:04:20.689Z,10.30
2018-11-02T03:05:20.961Z,9.90
2018-11-02T03:06:21.213Z,9.80
2018-11-02T03:07:21.321Z,11.30
2018-11-02T03:08:21.542Z,11.60
2018-11-02T03:09:21.744Z,10.90
2018-11-02T03:10:21.938Z,11.80
2018-11-02T03:11:21.854Z,11.50
2018-11-02T03:12:21.853Z,11.50
2018-11-02T03:13:22.383Z,11.40
2018-11-02T03:14:22.235Z,11.50
2018-11-02T03:15:22.485Z,11.60
2018-11-02T03:16:22.680Z,10.90
2018-11-02T03:17:22.780Z,12.00
2018-11-02T03:18:22.914Z,12.20
2018-11-02T03:19:23.091Z,12.20
2018-11-02T03:20:23.249Z,11.60
2018-11-02T03:21:23.444Z,13.30
2018-11-02T03:22:23.837Z,13.80
2018-11-02T03:23:23.959Z,14.30
2018-11-02T03:24:23.943Z,14.90
2018-11-02T03:25:24.318Z,15.30
2018-11-02T03:26:24.638Z,15.40
2018-11-02T03:27:25.089Z,15.90
2018-11-02T03:28:25.186Z,16.90
2018-11-02T03:29:25.585Z,17.70
2018-11-02T03:30:25.896Z,18.00
2018-11-02T03:31:26.211Z,17.50
2018-11-02T03:32:26.651Z,19.00
2018-11-02T03:33:26.953Z,18.80
2018-11-02T03:34:27.291Z,20.30
2018-11-02T03:35:27.288Z,19.90
2018-11-02T03:36:27.644Z,20.30
2018-11-02T03:37:28.084Z,20.10
2018-11-02T03:38:28.481Z,20.30
2018-11-02T03:39:28.967Z,21.00
2018-11-02T03:40:29.324Z,21.40
2018-11-02T03:41:29.713Z,21.80
2018-11-02T03:42:30.138Z,23.20
2018-11-02T03:43:30.550Z,21.10
2018-11-02T03:44:30.994Z,22.10
2018-11-02T03:45:31.293Z,24.40
2018-11-02T03:46:31.723Z,22.80
2018-11-02T03:47:32.104Z,24.50
2018-11-02T03:48:32.642Z,24.90
2018-11-02T03:49:33.044Z,24.30
2018-11-02T03:50:33.114Z,24.20
2018-11-02T03:51:32.986Z,23.20
2018-11-02T03:52:34.002Z,24.50
2018-11-02T03:53:34.582Z,22.90
2018-11-02T03:54:34.995Z,23.40
2018-11-02T03:55:35.299Z,23.60
2018-11-02T03:56:35.672Z,23.40
2018-11-02T03:57:36.036Z,22.60
2018-11-02T03:58:36.149Z,23.70
2018-11-02T03:59:36.453Z,23.70
2018-11-02T04:00:36.666Z,23.10
2018-11-02T04:01:36.774Z,23.10
2018-11-02T04:02:36.892Z,23.00
2018-11-02T04:03:37.178Z,24.10
2018-11-02T04:04:37.174Z,22.30
2018-11-02T04:05:37.493Z,22.80
2018-11-02T04:06:37.581Z,22.90
2018-11-02T04:07:37.703Z,24.40
2018-11-02T04:08:37.952Z,24.90
2018-11-02T04:09:38.225Z,24.60
2018-11-02T04:10:38.359Z,24.80
2018-11-02T04:11:38.879Z,25.30
2018-11-02T04:12:38.664Z,25.00
2018-11-02T04:13:38.881Z,25.20
2018-11-02T04:14:39.031Z,25.20
2018-11-02T04:15:39.055Z,24.70
2018-11-02T04:16:39.253Z,24.40
2018-11-02T04:17:39.213Z,23.70
2018-11-02T04:18:39.576Z,23.90
2018-11-02T04:19:40.040Z,22.50
2018-11-02T04:20:40.458Z,21.60
2018-11-02T04:21:40.822Z,21.60
2018-11-02T04:22:41.140Z,20.40
2018-11-02T04:23:41.451Z,21.80
2018-11-02T04:24:41.801Z,21.00
2018-11-02T04:25:42.182Z,21.30
2018-11-02T04:26:42.863Z,22.10
2018-11-02T04:27:42.711Z,22.20
2018-11-02T04:28:43.119Z,23.30
2018-11-02T04:29:43.671Z,24.00
2018-11-02T04:30:43.594Z,25.40
2018-11-02T04:31:43.983Z,24.30
2018-11-02T04:32:44.300Z,25.00
2018-11-02T04:33:44.689Z,23.80
2018-11-02T04:34:45.131Z,23.80
2018-11-02T04:35:45.529Z,25.90
2018-11-02T04:36:45.942Z,23.70
2018-11-02T04:37:46.177Z,25.70
2018-11-02T04:38:46.460Z,24.20
2018-11-02T04:39:46.786Z,24.40
2018-11-02T04:40:47.046Z,23.70
2018-11-02T04:41:47.346Z,25.50
2018-11-02T04:42:47.647Z,24.20
2018-11-02T04:44:48.404Z,25.00
2018-11-02T04:45:49.242Z,23.70
2018-11-02T04:46:49.352Z,26.10
2018-11-02T04:47:49.473Z,24.90
2018-11-02T04:48:49.982Z,24.20
2018-11-02T04:49:49.525Z,25.30
2018-11-02T04:50:50.029Z,22.80
2018-11-02T04:51:50.208Z,21.80
2018-11-02T04:52:50.626Z,21.30
2018-11-02T04:53:51.125Z,21.20
2018-11-02T04:54:51.257Z,20.60
2018-11-02T04:55:51.358Z,20.80
2018-11-02T04:56:51.700Z,20.00
2018-11-02T04:57:51.881Z,20.00
2018-11-02T04:58:51.990Z,19.00
2018-11-02T04:59:52.770Z,19.40
2018-11-02T05:00:52.280Z,19.60
2018-11-02T05:01:52.183Z,19.40
2018-11-02T05:03:52.603Z,19.20
2018-11-02T05:04:52.774Z,18.30
2018-11-02T05:05:52.883Z,19.10
2018-11-02T05:06:52.992Z,19.10
2018-11-02T05:07:53.284Z,20.40
2018-11-02T05:08:53.649Z,18.90
2018-11-02T05:09:54.114Z,19.20
2018-11-02T05:10:54.285Z,17.50
2018-11-02T05:11:54.427Z,17.30
2018-11-02T05:12:54.391Z,17.60
2018-11-02T05:13:54.789Z,17.50
2018-11-02T05:14:55.576Z,17.20
2018-11-02T05:15:55.397Z,18.30
2018-11-02T05:16:55.698Z,17.60
2018-11-02T05:17:56.401Z,17.90
2018-11-02T05:18:56.376Z,18.20
2018-11-02T05:19:56.813Z,19.70
2018-11-02T05:20:57.150Z,19.00
2018-11-02T05:21:57.527Z,18.20
2018-11-02T05:22:57.946Z,18.70
2018-11-02T05:23:58.325Z,19.30
2018-11-02T05:24:58.646Z,19.30
2018-11-02T05:25:59.093Z,19.40
2018-11-02T05:26:59.508Z,18.70
2018-11-02T05:28:00.010Z,18.00
2018-11-02T05:29:00.417Z,18.20
2018-11-02T05:30:00.836Z,18.20
2018-11-02T05:31:01.435Z,18.60
2018-11-02T05:32:01.546Z,18.70
2018-11-02T05:33:01.985Z,18.50
2018-11-02T05:34:02.871Z,20.30
2018-11-02T05:35:02.708Z,20.10
2018-11-02T05:36:03.507Z,20.10
2018-11-02T05:37:02.988Z,20.10
2018-11-02T05:38:04.044Z,20.30
2018-11-02T05:39:04.355Z,19.40
2018-11-02T05:40:04.552Z,18.50
2018-11-02T05:41:05.069Z,19.80
2018-11-02T05:42:05.390Z,21.10
2018-11-02T05:43:05.591Z,20.40
2018-11-02T05:44:05.810Z,20.70
2018-11-02T05:45:06.251Z,21.20
2018-11-02T05:46:06.441Z,22.00
2018-11-02T05:47:06.666Z,22.90
2018-11-02T05:48:06.766Z,21.10
2018-11-02T05:49:06.851Z,20.50
2018-11-02T05:51:07.080Z,21.00
2018-11-02T05:52:07.184Z,21.20
2018-11-02T05:53:07.260Z,23.80
2018-11-02T05:54:07.408Z,22.90
2018-11-02T05:55:07.298Z,22.60
2018-11-02T05:56:07.401Z,20.90
2018-11-02T05:57:07.538Z,20.70
2018-11-02T05:58:08.018Z,20.30
2018-11-02T05:59:08.255Z,20.80
2018-11-02T06:00:08.659Z,21.40
2018-11-02T06:01:08.300Z,22.20
2018-11-02T06:02:09.054Z,23.60
2018-11-02T06:03:09.586Z,23.00
2018-11-02T06:04:09.633Z,24.40
2018-11-02T06:05:09.713Z,23.70
2018-11-02T06:06:09.587Z,24.90
2018-11-02T06:07:09.897Z,25.80
2018-11-02T06:09:10.626Z,27.00
2018-11-02T06:10:10.496Z,25.30
2018-11-02T06:11:10.998Z,24.50
2018-11-02T06:12:11.341Z,26.00
2018-11-02T06:13:11.779Z,27.60
2018-11-02T06:14:12.215Z,28.00
2018-11-02T06:15:12.766Z,28.80
2018-11-02T06:16:12.627Z,28.90
2018-11-02T06:17:13.032Z,30.00
2018-11-02T06:18:13.365Z,28.90
2018-11-02T06:19:13.813Z,29.30
2018-11-02T06:20:14.149Z,29.70
2018-11-02T06:21:14.615Z,31.20
2018-11-02T06:22:14.979Z,33.60
2018-11-02T06:23:15.329Z,32.60
2018-11-02T06:24:15.795Z,34.50
2018-11-02T06:25:16.510Z,33.90
2018-11-02T06:26:16.412Z,33.80
2018-11-02T06:27:16.771Z,32.40
2018-11-02T06:28:17.217Z,33.10
2018-11-02T06:29:17.600Z,31.70
2018-11-02T06:30:19.109Z,31.80
2018-11-02T06:31:19.430Z,31.80
2018-11-02T06:32:19.634Z,31.50
2018-11-02T06:33:19.948Z,31.20
2018-11-02T06:34:20.264Z,30.90
2018-11-02T06:35:20.786Z,32.30
2018-11-02T06:36:21.000Z,32.90
2018-11-02T06:37:21.188Z,32.60
2018-11-02T06:38:21.620Z,31.80
2018-11-02T06:39:21.525Z,31.90
2018-11-02T06:40:22.147Z,32.10
2018-11-02T06:41:22.271Z,30.80
2018-11-02T06:42:22.270Z,28.00
2018-11-02T06:43:22.526Z,27.20
2018-11-02T06:44:22.720Z,26.10
2018-11-02T06:45:23.011Z,25.70
2018-11-02T06:46:23.309Z,23.70
2018-11-02T06:47:23.519Z,21.60
2018-11-02T06:48:23.821Z,23.60
2018-11-02T06:49:24.161Z,25.30
2018-11-02T06:50:24.341Z,25.50
2018-11-02T06:51:24.561Z,26.10
2018-11-02T06:53:24.578Z,27.30
2018-11-02T06:54:25.024Z,28.00
2018-11-02T06:55:25.512Z,28.50
2018-11-02T06:56:26.123Z,28.00
2018-11-02T06:57:26.076Z,27.70
2018-11-02T06:58:26.615Z,27.90
2018-11-02T06:59:26.824Z,27.50
2018-11-02T07:00:26.970Z,26.30
2018-11-02T07:01:27.240Z,26.20
2018-11-02T07:02:27.666Z,23.90
2018-11-02T07:03:28.236Z,24.50
2018-11-02T07:04:28.349Z,23.90
2018-11-02T07:05:28.404Z,23.50
2018-11-02T07:06:28.752Z,24.90
2018-11-02T07:07:29.318Z,24.10
2018-11-02T07:08:29.571Z,23.50
2018-11-02T07:09:29.956Z,23.20
2018-11-02T07:10:30.367Z,22.40
2018-11-02T07:11:30.772Z,21.00
2018-11-02T07:12:31.215Z,20.50
2018-11-02T07:13:31.612Z,19.20
2018-11-02T07:14:32.036Z,18.90
2018-11-02T07:15:32.429Z,19.50
2018-11-02T07:16:32.773Z,18.00
2018-11-02T07:17:33.552Z,17.40
2018-11-02T07:18:34.063Z,16.50
2018-11-02T07:19:34.273Z,15.80
2018-11-02T07:20:34.381Z,15.30
2018-11-02T07:21:34.277Z,14.90
2018-11-02T07:22:34.821Z,14.80
2018-11-02T07:23:35.019Z,14.20
2018-11-02T07:24:35.028Z,14.50
2018-11-02T07:25:35.139Z,12.60
2018-11-02T07:26:35.338Z,13.10
2018-11-02T07:27:35.356Z,12.50
2018-11-02T07:28:35.874Z,12.20
2018-11-02T07:29:35.992Z,12.00
2018-11-02T07:30:36.146Z,11.80
2018-11-02T07:31:36.176Z,11.20
2018-11-02T07:32:36.524Z,11.30
2018-11-02T07:33:36.414Z,11.10
2018-11-02T07:34:36.588Z,10.60
2018-11-02T07:35:36.764Z,10.90
2018-11-02T07:36:36.562Z,10.70
2018-11-02T07:37:36.961Z,10.60
2018-11-02T07:38:37.465Z,10.30
2018-11-02T07:39:37.577Z,10.30
2018-11-02T07:40:37.837Z,9.10
2018-11-02T07:41:38.036Z,9.30
2018-11-02T07:42:38.222Z,9.50
2018-11-02T07:43:38.741Z,10.10
2018-11-02T07:44:38.944Z,9.30
2018-11-02T07:45:39.055Z,8.20
2018-11-02T07:46:39.148Z,9.10
2018-11-02T07:47:39.199Z,9.20
2018-11-02T07:48:39.469Z,8.80
2018-11-02T07:49:39.871Z,8.20
2018-11-02T07:50:39.654Z,8.20
2018-11-02T07:52:40.088Z,8.40
2018-11-02T07:53:40.195Z,8.50
2018-11-02T07:54:40.508Z,7.80
2018-11-02T07:55:40.822Z,7.70
2018-11-02T07:56:41.313Z,8.20
2018-11-02T07:57:41.775Z,8.20
2018-11-02T07:58:41.817Z,7.80
2018-11-02T07:59:42.149Z,8.40
2018-11-02T08:00:42.509Z,7.50
2018-11-02T08:01:42.998Z,6.90
2018-11-02T08:02:43.149Z,7.90
2018-11-02T08:03:43.341Z,7.40
2018-11-02T08:04:43.755Z,7.00
2018-11-02T08:05:44.133Z,7.20
2018-11-02T08:06:44.579Z,6.60
2018-11-02T08:07:44.448Z,6.50
2018-11-02T08:08:44.800Z,6.20
2018-11-02T08:09:45.180Z,7.00
2018-11-02T08:10:45.515Z,6.50
2018-11-02T08:11:45.942Z,6.30
2018-11-02T08:12:46.360Z,5.70
2018-11-02T08:13:46.759Z,6.40
2018-11-02T08:14:47.146Z,5.70
2018-11-02T08:15:47.446Z,5.30
2018-11-02T08:16:47.842Z,5.80
2018-11-02T08:17:49.220Z,5.40
2018-11-02T08:18:49.348Z,6.00
2018-11-02T08:19:49.314Z,5.60
2018-11-02T08:20:49.929Z,5.20
2018-11-02T08:21:49.733Z,4.90
2018-11-02T08:22:50.357Z,5.30
2018-11-02T08:23:50.164Z,5.00
2018-11-02T08:24:50.467Z,5.30
2018-11-02T08:26:50.766Z,5.10
2018-11-02T08:27:51.092Z,5.10
2018-11-02T08:28:51.173Z,5.70
2018-11-02T08:29:51.379Z,5.70
2018-11-02T08:30:51.249Z,4.50
2018-11-02T08:31:51.766Z,4.90
2018-11-02T08:32:52.018Z,5.20
2018-11-02T08:33:52.315Z,4.50
2018-11-02T08:34:52.575Z,4.70
2018-11-02T08:35:52.663Z,4.70
2018-11-02T08:36:52.770Z,3.90
2018-11-02T08:37:52.933Z,4.80
2018-11-02T08:38:53.080Z,4.50
2018-11-02T08:39:53.229Z,4.20
2018-11-02T08:40:53.428Z,4.60
2018-11-02T08:41:53.612Z,4.30
2018-11-02T08:42:53.867Z,4.60
2018-11-02T08:43:54.214Z,4.50
2018-11-02T08:44:54.275Z,4.40
2018-11-02T08:45:54.200Z,4.70
2018-11-02T08:46:54.515Z,4.70
2018-11-02T08:47:54.908Z,4.60
2018-11-02T08:48:55.643Z,4.50
2018-11-02T08:49:55.478Z,4.60
2018-11-02T08:50:56.041Z,5.00
2018-11-02T08:51:55.942Z,5.30
2018-11-02T08:52:55.909Z,5.20
2018-11-02T08:53:56.372Z,4.60
2018-11-02T08:54:56.760Z,5.20
2018-11-02T08:55:57.155Z,5.20
2018-11-02T08:56:57.452Z,4.50
2018-11-02T08:57:57.961Z,5.10
2018-11-02T08:58:58.225Z,5.40
2018-11-02T08:59:58.514Z,4.90
2018-11-02T09:00:58.843Z,5.00
2018-11-02T09:01:59.271Z,5.00
2018-11-02T09:02:59.302Z,4.90
2018-11-02T09:03:59.680Z,4.80
2018-11-02T09:05:00.205Z,5.10
2018-11-02T09:06:00.538Z,4.50
2018-11-02T09:07:00.887Z,4.70
2018-11-02T09:08:01.154Z,4.90
2018-11-02T09:09:01.998Z,4.80
2018-11-02T09:10:01.679Z,4.70
2018-11-02T09:11:02.329Z,5.50
2018-11-02T09:12:02.468Z,4.90
2018-11-02T09:13:02.651Z,5.00
2018-11-02T09:14:02.830Z,5.20
2018-11-02T09:15:02.850Z,4.50
2018-11-02T09:16:02.820Z,5.40
2018-11-02T09:17:04.329Z,5.30
2018-11-02T09:18:04.637Z,5.70
2018-11-02T09:19:05.091Z,5.20
2018-11-02T09:20:04.975Z,5.10
2018-11-02T09:21:05.580Z,4.70
2018-11-02T09:22:05.994Z,5.50
2018-11-02T09:23:06.297Z,5.20
2018-11-02T09:24:06.735Z,5.10
2018-11-02T09:25:06.631Z,5.20
2018-11-02T09:26:06.728Z,5.20
2018-11-02T09:27:06.848Z,4.90
2018-11-02T09:28:07.015Z,5.00
2018-11-02T09:29:07.142Z,5.00
2018-11-02T09:30:07.584Z,5.20
2018-11-02T09:31:07.534Z,5.40
2018-11-02T09:32:07.744Z,5.20
2018-11-02T09:33:08.010Z,5.40
2018-11-02T09:34:08.125Z,5.40
2018-11-02T09:35:08.336Z,4.80
2018-11-02T09:36:08.455Z,5.00
2018-11-02T09:37:08.291Z,5.80
2018-11-02T09:38:08.908Z,5.60
2018-11-02T09:39:09.139Z,5.40
2018-11-02T09:40:09.191Z,5.10
2018-11-02T09:41:08.951Z,5.20
2018-11-02T09:42:09.848Z,5.30
2018-11-02T09:43:09.647Z,5.30
2018-11-02T09:44:10.066Z,5.20
2018-11-02T09:45:10.654Z,5.60
2018-11-02T09:46:10.896Z,5.90
2018-11-02T09:47:11.332Z,5.30
2018-11-02T09:48:11.725Z,5.40
2018-11-02T09:49:12.299Z,5.60
2018-11-02T09:50:12.175Z,5.80
2018-11-02T09:51:12.713Z,5.50
2018-11-02T09:52:13.161Z,5.70
2018-11-02T09:53:13.430Z,5.30
2018-11-02T09:54:13.719Z,4.80
2018-11-02T09:55:14.228Z,5.10
2018-11-02T09:56:14.194Z,6.10
2018-11-02T09:57:14.755Z,5.50
2018-11-02T09:58:14.701Z,6.00
2018-11-02T09:59:15.082Z,6.00
2018-11-02T10:00:16.077Z,4.90
2018-11-02T10:01:15.905Z,6.10
2018-11-02T10:02:16.458Z,5.40
2018-11-02T10:03:17.013Z,4.90
2018-11-02T10:04:16.866Z,5.30
2018-11-02T10:05:17.322Z,5.30
2018-11-02T10:06:17.716Z,5.60
2018-11-02T10:07:18.688Z,5.00
2018-11-02T10:08:19.521Z,5.90
2018-11-02T10:09:20.028Z,5.70
2018-11-02T10:10:20.452Z,5.60
2018-11-02T10:11:20.386Z,6.20
2018-11-02T10:12:20.968Z,7.10
2018-11-02T10:13:20.960Z,7.30
2018-11-02T10:14:20.843Z,6.30
2018-11-02T10:15:21.219Z,7.20
2018-11-02T10:16:21.401Z,6.90
2018-11-02T10:17:21.616Z,6.70
2018-11-02T10:18:21.721Z,6.40
2018-11-02T10:19:21.939Z,6.80
2018-11-02T10:20:22.036Z,6.20
2018-11-02T10:21:22.214Z,6.90
2018-11-02T10:22:22.256Z,6.60
2018-11-02T10:23:22.266Z,6.80
2018-11-02T10:24:22.302Z,6.80
2018-11-02T10:25:22.393Z,6.60
2018-11-02T10:26:22.389Z,6.60
2018-11-02T10:27:22.677Z,6.60
2018-11-02T10:28:22.991Z,6.70
2018-11-02T10:29:23.333Z,6.90
2018-11-02T10:30:23.349Z,6.80
2018-11-02T10:31:23.549Z,6.80
2018-11-02T10:32:23.809Z,7.10
2018-11-02T10:33:24.166Z,6.70
2018-11-02T10:34:24.319Z,6.70
2018-11-02T10:35:24.254Z,6.50
2018-11-02T10:36:24.674Z,6.60
2018-11-02T10:37:25.144Z,6.90
2018-11-02T10:38:25.542Z,6.90
2018-11-02T10:39:25.786Z,6.40
2018-11-02T10:40:25.715Z,6.40
2018-11-02T10:41:26.004Z,6.60
2018-11-02T10:42:26.373Z,6.30
2018-11-02T10:43:26.250Z,6.20
2018-11-02T10:44:26.737Z,6.90
2018-11-02T10:45:26.664Z,6.10
2018-11-02T10:46:27.088Z,6.70
2018-11-02T10:47:27.544Z,7.10
2018-11-02T10:48:28.105Z,6.40
2018-11-02T10:49:28.106Z,6.90
2018-11-02T10:50:28.429Z,6.60
2018-11-02T10:51:29.160Z,6.50
2018-11-02T10:52:29.047Z,6.70
2018-11-02T10:53:29.363Z,6.30
2018-11-02T10:54:29.801Z,6.50
2018-11-02T10:55:30.220Z,6.20
2018-11-02T10:56:30.700Z,6.00
2018-11-02T10:57:30.815Z,5.50
2018-11-02T10:58:31.108Z,5.90
2018-11-02T10:59:31.451Z,5.50
2018-11-02T11:00:31.836Z,5.30
2018-11-02T11:01:32.291Z,5.70
2018-11-02T11:02:32.702Z,5.50
2018-11-02T11:03:32.808Z,6.00
2018-11-02T11:04:33.813Z,5.90
2018-11-02T11:05:34.549Z,5.80
2018-11-02T11:06:34.848Z,5.50
2018-11-02T11:07:35.263Z,6.30
2018-11-02T11:08:35.642Z,6.10
2018-11-02T11:09:36.130Z,5.70
2018-11-02T11:10:36.520Z,5.90
2018-11-02T11:11:36.597Z,6.30
2018-11-02T11:12:37.087Z,5.70
2018-11-02T11:13:37.346Z,5.70
2018-11-02T11:14:37.316Z,5.50
2018-11-02T11:15:37.466Z,5.60
2018-11-02T11:16:37.572Z,6.80
2018-11-02T11:17:37.761Z,5.70
2018-11-02T11:18:37.887Z,5.70
2018-11-02T11:19:37.988Z,5.70
2018-11-02T11:20:38.226Z,5.20
2018-11-02T11:21:38.411Z,5.10
2018-11-02T11:22:38.607Z,5.50
2018-11-02T11:23:38.789Z,5.20
2018-11-02T11:24:38.953Z,5.50
2018-11-02T11:25:39.025Z,5.30
2018-11-02T11:26:39.081Z,5.60
2018-11-02T11:27:39.126Z,5.40
2018-11-02T11:28:39.318Z,6.10
2018-11-02T11:29:39.257Z,5.30
2018-11-02T11:30:39.654Z,5.20
2018-11-02T11:31:39.970Z,5.70
2018-11-02T11:32:40.436Z,4.70
2018-11-02T11:33:40.485Z,5.30
2018-11-02T11:34:41.106Z,4.50
2018-11-02T11:35:40.910Z,5.40
2018-11-02T11:36:41.388Z,5.40
2018-11-02T11:37:41.748Z,4.70
2018-11-02T11:38:41.842Z,5.40
2018-11-02T11:39:42.582Z,4.60
2018-11-02T11:40:42.386Z,4.20
2018-11-02T11:41:42.794Z,4.90
2018-11-02T11:42:43.207Z,3.40
2018-11-02T11:43:43.729Z,3.80
2018-11-02T11:44:43.619Z,3.60
2018-11-02T11:45:43.937Z,3.00
2018-11-02T11:46:44.256Z,3.40
2018-11-02T11:47:44.666Z,2.90
2018-11-02T11:48:45.113Z,3.00
2018-11-02T11:49:45.396Z,3.60
2018-11-02T11:50:45.406Z,2.80
2018-11-02T11:51:45.722Z,3.00
2018-11-02T11:52:46.039Z,3.00
2018-11-02T11:53:46.649Z,3.00
2018-11-02T11:54:46.971Z,2.70
2018-11-02T11:55:47.629Z,3.30
2018-11-02T11:56:47.478Z,3.00
2018-11-02T11:57:47.794Z,3.10
2018-11-02T11:58:48.776Z,3.90
2018-11-02T11:59:49.119Z,3.40
2018-11-02T12:00:49.944Z,3.30
2018-11-02T12:01:50.173Z,3.30
2018-11-02T12:02:50.672Z,3.30
2018-11-02T12:03:50.785Z,3.30
2018-11-02T12:04:51.073Z,3.60
2018-11-02T12:05:51.206Z,3.60
2018-11-02T12:06:51.533Z,3.30
2018-11-02T12:07:51.731Z,4.00
2018-11-02T12:08:51.942Z,3.80
2018-11-02T12:09:52.012Z,3.60
2018-11-02T12:10:51.928Z,3.60
2018-11-02T12:11:52.366Z,3.40
2018-11-02T12:12:52.563Z,3.90
2018-11-02T12:13:52.867Z,3.50
2018-11-02T12:14:53.000Z,3.40
2018-11-02T12:15:53.160Z,3.40
2018-11-02T12:16:53.242Z,3.30
2018-11-02T12:17:53.508Z,3.30
2018-11-02T12:18:53.707Z,3.50
2018-11-02T12:19:53.893Z,3.40
2018-11-02T12:20:54.183Z,3.30
2018-11-02T12:21:54.241Z,3.50
2018-11-02T12:22:54.195Z,3.10
2018-11-02T12:23:54.258Z,3.80
2018-11-02T12:24:54.593Z,3.60
2018-11-02T12:25:54.895Z,3.70
2018-11-02T12:26:55.267Z,3.60
2018-11-02T12:27:55.741Z,3.30
2018-11-02T12:28:56.159Z,3.70
2018-11-02T12:29:56.413Z,3.40
2018-11-02T12:30:56.831Z,3.70
2018-11-02T12:31:57.153Z,3.60
2018-11-02T12:32:57.599Z,3.50
2018-11-02T12:33:57.898Z,3.40
2018-11-02T12:34:58.283Z,3.90
2018-11-02T12:35:58.700Z,3.70
2018-11-02T12:36:59.084Z,3.30
2018-11-02T12:38:59.625Z,3.40
2018-11-02T12:39:59.441Z,3.40
2018-11-02T12:40:59.843Z,3.30
2018-11-02T12:42:00.164Z,3.10
2018-11-02T12:43:00.495Z,3.00
2018-11-02T12:44:01.113Z,3.20
2018-11-02T12:45:00.953Z,3.00
2018-11-02T12:46:00.917Z,3.00
2018-11-02T12:47:01.714Z,3.40
2018-11-02T12:48:01.753Z,3.10
2018-11-02T12:49:02.407Z,2.90
2018-11-02T12:50:02.396Z,3.00
2018-11-02T12:51:03.594Z,3.20
2018-11-02T12:52:03.411Z,2.60
2018-11-02T12:53:03.916Z,2.80
2018-11-02T12:54:04.012Z,2.60
2018-11-02T12:55:03.988Z,3.00
2018-11-02T12:56:04.333Z,2.60
2018-11-02T12:57:04.542Z,2.70
2018-11-02T12:58:04.765Z,2.80
2018-11-02T12:59:04.966Z,2.80
2018-11-02T13:00:05.590Z,2.80
2018-11-02T13:01:05.696Z,2.80
2018-11-02T13:03:06.131Z,2.50
2018-11-02T13:04:06.740Z,2.70
2018-11-02T13:05:06.439Z,3.30
2018-11-02T13:06:06.961Z,2.60
2018-11-02T13:07:06.565Z,2.90
2018-11-02T13:08:06.777Z,2.90
2018-11-02T13:09:06.865Z,3.00
2018-11-02T13:10:07.176Z,3.20
2018-11-02T13:11:07.151Z,2.90
2018-11-02T13:13:07.175Z,3.00
2018-11-02T13:14:07.490Z,2.80
2018-11-02T13:16:07.731Z,2.80
2018-11-02T13:17:07.550Z,2.70
2018-11-02T13:18:08.332Z,3.00
2018-11-02T13:19:08.540Z,2.30
2018-11-02T13:20:08.407Z,2.40
2018-11-02T13:21:08.913Z,2.80